West Fulton, New York
Current Conditions -  °F | °C
As of 12:55 PM on Sunday 21 Dec 2014 (Local Time) from KNY0 Reporting Station
Overcast Overcast  
Wind Chill: 28°   Ceiling: 3100
Heat Index: 28°   Visibility: 10mi
Dew Point: 20°   Wind: 0mph
Humidity: 72%   Direction: NA
Pressure: 30.28"   Gusts: NA
Location:  42.56°N, 74.46°W
Report Text: KNY0 211755Z AUTO 00000KT 10SM OVC031 M02/M07 A3028 RMK AO2 T10211066 11021 21048
Loading
Personal Weather Stations






























Interactive Weather Map New forecast layout! Learn more

10-Day Weather Forecast

Advertisements
Track Severe Weather on mobile